sensor_id;sensor_type;location;lat;lon;timestamp;P1;durP1;ratioP1;P2;durP2;ratioP2
41259;SDS011;26993;48.958;9.330;2022-07-10T00:01:01;7.13;;;6.10;;
41259;SDS011;26993;48.958;9.330;2022-07-10T00:03:47;6.55;;;5.85;;
41259;SDS011;26993;48.958;9.330;2022-07-10T00:06:35;10.23;;;6.30;;
41259;SDS011;26993;48.958;9.330;2022-07-10T00:09:22;6.60;;;5.60;;
41259;SDS011;26993;48.958;9.330;2022-07-10T00:12:08;6.28;;;5.20;;
41259;SDS011;26993;48.958;9.330;2022-07-10T00:14:56;8.90;;;6.20;;
41259;SDS011;26993;48.958;9.330;2022-07-10T00:17:44;7.03;;;5.82;;
41259;SDS011;26993;48.958;9.330;2022-07-10T00:20:32;9.65;;;6.88;;
41259;SDS011;26993;48.958;9.330;2022-07-10T00:23:19;7.32;;;6.53;;
41259;SDS011;26993;48.958;9.330;2022-07-10T00:26:06;7.85;;;7.05;;
41259;SDS011;26993;48.958;9.330;2022-07-10T00:28:52;7.70;;;6.43;;
41259;SDS011;26993;48.958;9.330;2022-07-10T00:31:41;7.53;;;6.30;;
41259;SDS011;26993;48.958;9.330;2022-07-10T00:34:28;7.78;;;6.88;;
41259;SDS011;26993;48.958;9.330;2022-07-10T00:37:15;10.48;;;7.10;;
41259;SDS011;26993;48.958;9.330;2022-07-10T00:40:02;7.20;;;6.25;;
41259;SDS011;26993;48.958;9.330;2022-07-10T00:42:50;8.25;;;7.25;;
41259;SDS011;26993;48.958;9.330;2022-07-10T00:45:37;8.32;;;7.15;;
41259;SDS011;26993;48.958;9.330;2022-07-10T00:48:25;7.60;;;6.85;;
41259;SDS011;26993;48.958;9.330;2022-07-10T00:51:12;9.15;;;7.78;;
41259;SDS011;26993;48.958;9.330;2022-07-10T00:53:59;7.72;;;6.80;;
41259;SDS011;26993;48.958;9.330;2022-07-10T00:56:46;7.97;;;6.95;;
41259;SDS011;26993;48.958;9.330;2022-07-10T00:59:34;7.72;;;6.93;;
41259;SDS011;26993;48.958;9.330;2022-07-10T01:02:21;9.55;;;6.97;;
41259;SDS011;26993;48.958;9.330;2022-07-10T01:05:10;9.68;;;7.07;;
41259;SDS011;26993;48.958;9.330;2022-07-10T01:07:57;8.90;;;7.50;;
41259;SDS011;26993;48.958;9.330;2022-07-10T01:10:44;8.95;;;7.82;;
41259;SDS011;26993;48.958;9.330;2022-07-10T01:13:31;10.88;;;8.23;;
41259;SDS011;26993;48.958;9.330;2022-07-10T01:16:18;10.00;;;7.43;;
41259;SDS011;26993;48.958;9.330;2022-07-10T01:19:05;8.68;;;7.07;;
41259;SDS011;26993;48.958;9.330;2022-07-10T01:21:53;9.40;;;7.47;;
41259;SDS011;26993;48.958;9.330;2022-07-10T01:24:40;6.95;;;6.25;;
41259;SDS011;26993;48.958;9.330;2022-07-10T01:27:27;8.35;;;5.95;;
41259;SDS011;26993;48.958;9.330;2022-07-10T01:30:13;7.18;;;6.07;;
41259;SDS011;26993;48.958;9.330;2022-07-10T01:33:00;7.63;;;6.30;;
41259;SDS011;26993;48.958;9.330;2022-07-10T01:35:47;6.47;;;5.80;;
41259;SDS011;26993;48.958;9.330;2022-07-10T01:38:35;6.50;;;5.75;;
41259;SDS011;26993;48.958;9.330;2022-07-10T01:41:23;7.78;;;6.07;;
41259;SDS011;26993;48.958;9.330;2022-07-10T01:44:11;7.93;;;5.43;;
41259;SDS011;26993;48.958;9.330;2022-07-10T01:46:58;7.05;;;5.97;;
41259;SDS011;26993;48.958;9.330;2022-07-10T01:49:44;6.72;;;5.70;;
41259;SDS011;26993;48.958;9.330;2022-07-10T01:52:31;7.97;;;6.13;;
41259;SDS011;26993;48.958;9.330;2022-07-10T01:55:19;6.22;;;5.63;;
41259;SDS011;26993;48.958;9.330;2022-07-10T01:58:06;9.27;;;6.00;;
41259;SDS011;26993;48.958;9.330;2022-07-10T02:00:53;6.95;;;6.22;;
41259;SDS011;26993;48.958;9.330;2022-07-10T02:03:40;5.90;;;5.30;;
41259;SDS011;26993;48.958;9.330;2022-07-10T02:06:43;8.25;;;6.63;;
41259;SDS011;26993;48.958;9.330;2022-07-10T02:09:30;7.90;;;5.82;;
41259;SDS011;26993;48.958;9.330;2022-07-10T02:12:19;8.10;;;5.53;;
41259;SDS011;26993;48.958;9.330;2022-07-10T02:15:06;8.48;;;6.05;;
41259;SDS011;26993;48.958;9.330;2022-07-10T02:17:53;6.53;;;5.50;;
41259;SDS011;26993;48.958;9.330;2022-07-10T02:20:40;6.97;;;6.20;;
41259;SDS011;26993;48.958;9.330;2022-07-10T02:23:27;6.53;;;5.93;;
41259;SDS011;26993;48.958;9.330;2022-07-10T02:26:14;7.77;;;6.70;;
41259;SDS011;26993;48.958;9.330;2022-07-10T02:29:02;6.60;;;5.67;;
41259;SDS011;26993;48.958;9.330;2022-07-10T02:31:49;6.20;;;5.60;;
41259;SDS011;26993;48.958;9.330;2022-07-10T02:34:35;7.10;;;5.82;;
41259;SDS011;26993;48.958;9.330;2022-07-10T02:37:22;8.88;;;5.60;;
41259;SDS011;26993;48.958;9.330;2022-07-10T02:40:10;7.68;;;6.55;;
41259;SDS011;26993;48.958;9.330;2022-07-10T02:42:57;7.63;;;6.93;;
41259;SDS011;26993;48.958;9.330;2022-07-10T02:45:45;7.90;;;7.10;;
41259;SDS011;26993;48.958;9.330;2022-07-10T02:48:32;7.57;;;6.78;;
41259;SDS011;26993;48.958;9.330;2022-07-10T02:51:19;7.15;;;6.45;;
41259;SDS011;26993;48.958;9.330;2022-07-10T02:54:06;8.18;;;7.05;;
41259;SDS011;26993;48.958;9.330;2022-07-10T02:56:53;8.70;;;6.70;;
41259;SDS011;26993;48.958;9.330;2022-07-10T02:59:40;8.40;;;6.53;;
41259;SDS011;26993;48.958;9.330;2022-07-10T03:02:28;10.20;;;6.28;;
41259;SDS011;26993;48.958;9.330;2022-07-10T03:05:15;7.63;;;6.65;;
41259;SDS011;26993;48.958;9.330;2022-07-10T03:08:03;9.25;;;6.32;;
41259;SDS011;26993;48.958;9.330;2022-07-10T03:10:50;7.90;;;6.57;;
41259;SDS011;26993;48.958;9.330;2022-07-10T03:13:36;7.25;;;6.30;;
41259;SDS011;26993;48.958;9.330;2022-07-10T03:16:23;8.23;;;7.30;;
41259;SDS011;26993;48.958;9.330;2022-07-10T03:19:11;9.18;;;7.65;;
41259;SDS011;26993;48.958;9.330;2022-07-10T03:21:58;10.45;;;8.05;;
41259;SDS011;26993;48.958;9.330;2022-07-10T03:24:45;9.15;;;8.23;;
41259;SDS011;26993;48.958;9.330;2022-07-10T03:27:32;7.60;;;6.90;;
41259;SDS011;26993;48.958;9.330;2022-07-10T03:30:19;8.13;;;7.32;;
41259;SDS011;26993;48.958;9.330;2022-07-10T03:33:06;8.82;;;7.47;;
41259;SDS011;26993;48.958;9.330;2022-07-10T03:35:54;8.18;;;6.97;;
41259;SDS011;26993;48.958;9.330;2022-07-10T03:38:41;9.43;;;7.43;;
41259;SDS011;26993;48.958;9.330;2022-07-10T03:41:29;8.20;;;7.30;;
41259;SDS011;26993;48.958;9.330;2022-07-10T03:44:15;8.45;;;7.57;;
41259;SDS011;26993;48.958;9.330;2022-07-10T03:47:02;8.98;;;7.43;;
41259;SDS011;26993;48.958;9.330;2022-07-10T03:49:49;11.18;;;7.13;;
41259;SDS011;26993;48.958;9.330;2022-07-10T03:52:37;9.93;;;7.47;;
41259;SDS011;26993;48.958;9.330;2022-07-10T03:55:24;10.20;;;7.15;;
41259;SDS011;26993;48.958;9.330;2022-07-10T03:58:11;10.40;;;7.45;;
41259;SDS011;26993;48.958;9.330;2022-07-10T04:00:57;10.55;;;7.45;;
41259;SDS011;26993;48.958;9.330;2022-07-10T04:03:44;7.40;;;6.70;;
41259;SDS011;26993;48.958;9.330;2022-07-10T04:06:30;9.85;;;6.95;;
41259;SDS011;26993;48.958;9.330;2022-07-10T04:09:19;7.88;;;7.07;;
41259;SDS011;26993;48.958;9.330;2022-07-10T04:12:06;10.55;;;7.40;;
41259;SDS011;26993;48.958;9.330;2022-07-10T04:14:52;7.68;;;6.88;;
41259;SDS011;26993;48.958;9.330;2022-07-10T04:17:40;8.85;;;6.78;;
41259;SDS011;26993;48.958;9.330;2022-07-10T04:20:26;8.07;;;7.25;;
41259;SDS011;26993;48.958;9.330;2022-07-10T04:23:13;8.10;;;6.60;;
41259;SDS011;26993;48.958;9.330;2022-07-10T04:26:01;9.10;;;6.30;;
41259;SDS011;26993;48.958;9.330;2022-07-10T04:28:48;7.20;;;6.38;;
41259;SDS011;26993;48.958;9.330;2022-07-10T04:31:35;10.45;;;6.72;;
41259;SDS011;26993;48.958;9.330;2022-07-10T04:34:22;8.60;;;6.68;;
41259;SDS011;26993;48.958;9.330;2022-07-10T04:37:08;8.57;;;6.47;;
41259;SDS011;26993;48.958;9.330;2022-07-10T04:39:55;6.72;;;6.03;;
41259;SDS011;26993;48.958;9.330;2022-07-10T04:42:43;9.18;;;7.07;;
41259;SDS011;26993;48.958;9.330;2022-07-10T04:45:31;8.70;;;6.57;;
41259;SDS011;26993;48.958;9.330;2022-07-10T04:48:17;7.45;;;5.80;;
41259;SDS011;26993;48.958;9.330;2022-07-10T04:51:04;6.90;;;5.88;;
41259;SDS011;26993;48.958;9.330;2022-07-10T04:53:51;7.43;;;5.60;;
41259;SDS011;26993;48.958;9.330;2022-07-10T04:56:38;7.88;;;5.78;;
41259;SDS011;26993;48.958;9.330;2022-07-10T04:59:26;11.30;;;7.38;;
41259;SDS011;26993;48.958;9.330;2022-07-10T05:02:13;7.70;;;5.82;;
41259;SDS011;26993;48.958;9.330;2022-07-10T05:04:59;8.98;;;6.25;;
41259;SDS011;26993;48.958;9.330;2022-07-10T05:07:46;10.77;;;7.05;;
41259;SDS011;26993;48.958;9.330;2022-07-10T05:10:33;7.57;;;6.07;;
41259;SDS011;26993;48.958;9.330;2022-07-10T05:13:20;8.80;;;6.57;;
41259;SDS011;26993;48.958;9.330;2022-07-10T05:16:08;9.20;;;6.38;;
41259;SDS011;26993;48.958;9.330;2022-07-10T05:18:55;6.20;;;5.60;;
41259;SDS011;26993;48.958;9.330;2022-07-10T05:21:42;7.18;;;6.07;;
41259;SDS011;26993;48.958;9.330;2022-07-10T05:24:28;8.20;;;5.38;;
41259;SDS011;26993;48.958;9.330;2022-07-10T05:27:15;6.80;;;4.57;;
41259;SDS011;26993;48.958;9.330;2022-07-10T05:30:04;6.70;;;4.40;;
41259;SDS011;26993;48.958;9.330;2022-07-10T05:32:53;5.43;;;4.20;;
41259;SDS011;26993;48.958;9.330;2022-07-10T05:35:40;8.68;;;4.32;;
41259;SDS011;26993;48.958;9.330;2022-07-10T05:38:26;6.63;;;4.00;;
41259;SDS011;26993;48.958;9.330;2022-07-10T05:41:16;7.75;;;3.78;;
41259;SDS011;26993;48.958;9.330;2022-07-10T05:44:03;4.85;;;3.80;;
41259;SDS011;26993;48.958;9.330;2022-07-10T05:46:51;7.15;;;4.05;;
41259;SDS011;26993;48.958;9.330;2022-07-10T05:49:39;5.35;;;3.03;;
41259;SDS011;26993;48.958;9.330;2022-07-10T05:52:26;6.32;;;3.38;;
41259;SDS011;26993;48.958;9.330;2022-07-10T05:55:13;4.65;;;3.20;;
41259;SDS011;26993;48.958;9.330;2022-07-10T05:58:00;5.00;;;3.13;;
41259;SDS011;26993;48.958;9.330;2022-07-10T06:00:47;4.05;;;3.00;;
41259;SDS011;26993;48.958;9.330;2022-07-10T06:03:37;7.15;;;3.20;;
41259;SDS011;26993;48.958;9.330;2022-07-10T06:06:26;7.32;;;3.33;;
41259;SDS011;26993;48.958;9.330;2022-07-10T06:09:13;7.32;;;2.95;;
41259;SDS011;26993;48.958;9.330;2022-07-10T06:12:01;4.00;;;2.60;;
41259;SDS011;26993;48.958;9.330;2022-07-10T06:14:48;4.45;;;2.90;;
41259;SDS011;26993;48.958;9.330;2022-07-10T06:17:35;3.92;;;2.47;;
41259;SDS011;26993;48.958;9.330;2022-07-10T06:20:22;4.32;;;2.35;;
41259;SDS011;26993;48.958;9.330;2022-07-10T06:23:10;3.40;;;2.33;;
41259;SDS011;26993;48.958;9.330;2022-07-10T06:25:57;4.45;;;2.30;;
41259;SDS011;26993;48.958;9.330;2022-07-10T06:28:44;5.07;;;2.45;;
41259;SDS011;26993;48.958;9.330;2022-07-10T06:31:31;5.45;;;2.33;;
41259;SDS011;26993;48.958;9.330;2022-07-10T06:34:17;5.20;;;2.33;;
41259;SDS011;26993;48.958;9.330;2022-07-10T06:37:05;8.02;;;2.88;;
41259;SDS011;26993;48.958;9.330;2022-07-10T06:39:53;4.82;;;2.22;;
41259;SDS011;26993;48.958;9.330;2022-07-10T06:42:40;6.00;;;2.35;;
41259;SDS011;26993;48.958;9.330;2022-07-10T06:45:26;3.30;;;2.00;;
41259;SDS011;26993;48.958;9.330;2022-07-10T06:48:13;6.82;;;1.90;;
41259;SDS011;26993;48.958;9.330;2022-07-10T06:51:00;3.42;;;2.13;;
41259;SDS011;26993;48.958;9.330;2022-07-10T06:53:47;4.35;;;2.03;;
41259;SDS011;26993;48.958;9.330;2022-07-10T06:56:36;4.45;;;2.22;;
41259;SDS011;26993;48.958;9.330;2022-07-10T06:59:23;3.58;;;2.13;;
41259;SDS011;26993;48.958;9.330;2022-07-10T07:02:10;5.93;;;1.80;;
41259;SDS011;26993;48.958;9.330;2022-07-10T07:04:57;4.53;;;2.28;;
41259;SDS011;26993;48.958;9.330;2022-07-10T07:07:43;6.47;;;2.25;;
41259;SDS011;26993;48.958;9.330;2022-07-10T07:10:30;5.30;;;2.10;;
41259;SDS011;26993;48.958;9.330;2022-07-10T07:13:19;3.42;;;1.98;;
41259;SDS011;26993;48.958;9.330;2022-07-10T07:16:06;7.07;;;2.05;;
41259;SDS011;26993;48.958;9.330;2022-07-10T07:18:54;6.43;;;2.20;;
41259;SDS011;26993;48.958;9.330;2022-07-10T07:21:42;2.83;;;2.15;;
41259;SDS011;26993;48.958;9.330;2022-07-10T07:24:57;3.33;;;1.98;;
41259;SDS011;26993;48.958;9.330;2022-07-10T07:27:45;7.05;;;2.38;;
41259;SDS011;26993;48.958;9.330;2022-07-10T07:30:36;4.68;;;2.20;;
41259;SDS011;26993;48.958;9.330;2022-07-10T07:33:26;4.53;;;1.83;;
41259;SDS011;26993;48.958;9.330;2022-07-10T07:36:13;3.90;;;1.73;;
41259;SDS011;26993;48.958;9.330;2022-07-10T07:38:59;4.97;;;1.90;;
41259;SDS011;26993;48.958;9.330;2022-07-10T07:41:46;4.75;;;1.73;;
41259;SDS011;26993;48.958;9.330;2022-07-10T07:47:24;3.95;;;1.80;;
41259;SDS011;26993;48.958;9.330;2022-07-10T07:50:11;7.00;;;1.75;;
41259;SDS011;26993;48.958;9.330;2022-07-10T07:52:59;2.45;;;1.67;;
41259;SDS011;26993;48.958;9.330;2022-07-10T07:55:46;3.47;;;1.60;;
41259;SDS011;26993;48.958;9.330;2022-07-10T07:58:33;5.13;;;1.60;;
41259;SDS011;26993;48.958;9.330;2022-07-10T08:01:19;3.13;;;1.73;;
41259;SDS011;26993;48.958;9.330;2022-07-10T08:04:09;3.63;;;1.60;;
41259;SDS011;26993;48.958;9.330;2022-07-10T08:06:56;3.75;;;1.70;;
41259;SDS011;26993;48.958;9.330;2022-07-10T08:09:43;3.58;;;1.50;;
41259;SDS011;26993;48.958;9.330;2022-07-10T08:12:30;4.13;;;1.38;;
41259;SDS011;26993;48.958;9.330;2022-07-10T08:15:18;6.60;;;1.70;;
41259;SDS011;26993;48.958;9.330;2022-07-10T08:18:07;4.10;;;1.63;;
41259;SDS011;26993;48.958;9.330;2022-07-10T08:20:55;2.65;;;1.52;;
41259;SDS011;26993;48.958;9.330;2022-07-10T08:23:41;3.70;;;1.52;;
41259;SDS011;26993;48.958;9.330;2022-07-10T08:26:28;2.53;;;1.65;;
41259;SDS011;26993;48.958;9.330;2022-07-10T08:29:15;4.03;;;1.60;;
41259;SDS011;26993;48.958;9.330;2022-07-10T08:32:02;6.47;;;1.77;;
41259;SDS011;26993;48.958;9.330;2022-07-10T08:34:50;4.50;;;1.67;;
41259;SDS011;26993;48.958;9.330;2022-07-10T08:37:38;4.75;;;1.52;;
41259;SDS011;26993;48.958;9.330;2022-07-10T08:40:25;9.45;;;2.08;;
41259;SDS011;26993;48.958;9.330;2022-07-10T08:43:21;4.07;;;1.63;;
41259;SDS011;26993;48.958;9.330;2022-07-10T08:46:08;4.50;;;1.70;;
41259;SDS011;26993;48.958;9.330;2022-07-10T08:48:58;4.93;;;1.60;;
41259;SDS011;26993;48.958;9.330;2022-07-10T08:51:47;4.95;;;1.60;;
41259;SDS011;26993;48.958;9.330;2022-07-10T08:54:41;2.80;;;1.40;;
41259;SDS011;26993;48.958;9.330;2022-07-10T08:57:29;3.50;;;1.48;;
41259;SDS011;26993;48.958;9.330;2022-07-10T09:00:17;3.38;;;1.77;;
41259;SDS011;26993;48.958;9.330;2022-07-10T09:03:04;4.22;;;1.73;;
41259;SDS011;26993;48.958;9.330;2022-07-10T09:05:51;4.25;;;1.70;;
41259;SDS011;26993;48.958;9.330;2022-07-10T09:08:38;4.03;;;1.70;;
41259;SDS011;26993;48.958;9.330;2022-07-10T09:11:44;4.30;;;1.70;;
41259;SDS011;26993;48.958;9.330;2022-07-10T09:14:31;4.43;;;1.45;;
41259;SDS011;26993;48.958;9.330;2022-07-10T09:17:18;5.80;;;1.55;;
41259;SDS011;26993;48.958;9.330;2022-07-10T09:20:05;5.63;;;1.60;;
41259;SDS011;26993;48.958;9.330;2022-07-10T09:22:53;3.58;;;1.50;;
41259;SDS011;26993;48.958;9.330;2022-07-10T09:25:39;4.57;;;1.52;;
41259;SDS011;26993;48.958;9.330;2022-07-10T09:28:28;4.22;;;1.50;;
41259;SDS011;26993;48.958;9.330;2022-07-10T09:31:14;2.55;;;1.20;;
41259;SDS011;26993;48.958;9.330;2022-07-10T09:34:05;4.13;;;1.52;;
41259;SDS011;26993;48.958;9.330;2022-07-10T09:36:53;3.65;;;1.42;;
41259;SDS011;26993;48.958;9.330;2022-07-10T09:39:44;3.00;;;1.40;;
41259;SDS011;26993;48.958;9.330;2022-07-10T09:42:42;3.53;;;1.30;;
41259;SDS011;26993;48.958;9.330;2022-07-10T09:45:36;2.25;;;1.13;;
41259;SDS011;26993;48.958;9.330;2022-07-10T09:48:23;3.80;;;1.40;;
41259;SDS011;26993;48.958;9.330;2022-07-10T09:51:13;3.63;;;1.50;;
41259;SDS011;26993;48.958;9.330;2022-07-10T09:54:03;5.97;;;1.40;;
41259;SDS011;26993;48.958;9.330;2022-07-10T09:56:51;4.00;;;1.40;;
41259;SDS011;26993;48.958;9.330;2022-07-10T09:59:39;4.72;;;1.25;;
41259;SDS011;26993;48.958;9.330;2022-07-10T10:02:28;3.50;;;1.50;;
41259;SDS011;26993;48.958;9.330;2022-07-10T10:05:16;4.22;;;1.20;;
41259;SDS011;26993;48.958;9.330;2022-07-10T10:08:09;3.90;;;1.33;;
41259;SDS011;26993;48.958;9.330;2022-07-10T10:10:59;3.75;;;1.00;;
41259;SDS011;26993;48.958;9.330;2022-07-10T10:13:48;3.10;;;1.30;;
41259;SDS011;26993;48.958;9.330;2022-07-10T10:16:36;5.60;;;1.63;;
41259;SDS011;26993;48.958;9.330;2022-07-10T10:19:25;2.97;;;1.10;;
41259;SDS011;26993;48.958;9.330;2022-07-10T10:22:30;3.65;;;1.25;;
41259;SDS011;26993;48.958;9.330;2022-07-10T10:25:20;3.97;;;1.65;;
41259;SDS011;26993;48.958;9.330;2022-07-10T10:28:12;4.03;;;1.33;;
41259;SDS011;26993;48.958;9.330;2022-07-10T10:31:08;4.40;;;2.08;;
41259;SDS011;26993;48.958;9.330;2022-07-10T10:33:57;3.78;;;2.00;;
41259;SDS011;26993;48.958;9.330;2022-07-10T10:36:47;9.73;;;4.30;;
41259;SDS011;26993;48.958;9.330;2022-07-10T10:42:42;4.00;;;1.50;;
41259;SDS011;26993;48.958;9.330;2022-07-10T10:45:32;2.78;;;1.30;;
41259;SDS011;26993;48.958;9.330;2022-07-10T10:48:24;2.60;;;1.30;;
41259;SDS011;26993;48.958;9.330;2022-07-10T10:51:12;3.20;;;1.30;;
41259;SDS011;26993;48.958;9.330;2022-07-10T10:54:05;7.45;;;5.93;;
41259;SDS011;26993;48.958;9.330;2022-07-10T10:57:11;4.68;;;2.05;;
41259;SDS011;26993;48.958;9.330;2022-07-10T11:00:02;1.20;;;1.02;;
41259;SDS011;26993;48.958;9.330;2022-07-10T11:03:12;3.13;;;1.70;;
41259;SDS011;26993;48.958;9.330;2022-07-10T11:06:04;5.25;;;2.03;;
41259;SDS011;26993;48.958;9.330;2022-07-10T11:08:53;4.60;;;2.92;;
41259;SDS011;26993;48.958;9.330;2022-07-10T11:11:47;6.28;;;2.58;;
41259;SDS011;26993;48.958;9.330;2022-07-10T11:14:44;9.02;;;5.15;;
41259;SDS011;26993;48.958;9.330;2022-07-10T11:17:32;4.68;;;1.50;;
41259;SDS011;26993;48.958;9.330;2022-07-10T11:20:20;4.53;;;2.30;;
41259;SDS011;26993;48.958;9.330;2022-07-10T11:23:11;5.80;;;2.20;;
41259;SDS011;26993;48.958;9.330;2022-07-10T11:26:10;3.25;;;1.30;;
41259;SDS011;26993;48.958;9.330;2022-07-10T11:29:03;2.03;;;1.20;;
41259;SDS011;26993;48.958;9.330;2022-07-10T11:31:52;5.03;;;1.50;;
41259;SDS011;26993;48.958;9.330;2022-07-10T11:34:39;2.47;;;1.20;;
41259;SDS011;26993;48.958;9.330;2022-07-10T11:37:26;4.40;;;1.17;;
41259;SDS011;26993;48.958;9.330;2022-07-10T11:40:15;2.65;;;1.38;;
41259;SDS011;26993;48.958;9.330;2022-07-10T11:43:04;3.47;;;1.40;;
41259;SDS011;26993;48.958;9.330;2022-07-10T11:45:56;4.63;;;1.45;;
41259;SDS011;26993;48.958;9.330;2022-07-10T11:48:46;4.00;;;1.67;;
41259;SDS011;26993;48.958;9.330;2022-07-10T11:51:35;2.78;;;1.20;;
41259;SDS011;26993;48.958;9.330;2022-07-10T11:54:24;4.78;;;1.33;;
41259;SDS011;26993;48.958;9.330;2022-07-10T11:57:11;2.70;;;1.30;;
41259;SDS011;26993;48.958;9.330;2022-07-10T11:59:57;3.15;;;1.40;;
41259;SDS011;26993;48.958;9.330;2022-07-10T12:02:45;4.78;;;1.30;;
41259;SDS011;26993;48.958;9.330;2022-07-10T12:05:32;2.53;;;1.20;;
41259;SDS011;26993;48.958;9.330;2022-07-10T12:08:20;3.97;;;1.35;;
41259;SDS011;26993;48.958;9.330;2022-07-10T12:11:10;3.80;;;1.35;;
41259;SDS011;26993;48.958;9.330;2022-07-10T12:14:11;4.28;;;1.25;;
41259;SDS011;26993;48.958;9.330;2022-07-10T12:17:10;2.83;;;1.30;;
41259;SDS011;26993;48.958;9.330;2022-07-10T12:19:59;2.67;;;1.13;;
41259;SDS011;26993;48.958;9.330;2022-07-10T12:22:46;4.85;;;1.42;;
41259;SDS011;26993;48.958;9.330;2022-07-10T12:25:33;4.93;;;1.23;;
41259;SDS011;26993;48.958;9.330;2022-07-10T12:28:20;4.40;;;1.00;;
41259;SDS011;26993;48.958;9.330;2022-07-10T12:31:07;4.32;;;1.20;;
41259;SDS011;26993;48.958;9.330;2022-07-10T12:33:56;4.57;;;1.30;;
41259;SDS011;26993;48.958;9.330;2022-07-10T12:37:06;2.35;;;1.20;;
41259;SDS011;26993;48.958;9.330;2022-07-10T12:39:56;3.03;;;1.13;;
41259;SDS011;26993;48.958;9.330;2022-07-10T12:43:03;4.47;;;1.20;;
41259;SDS011;26993;48.958;9.330;2022-07-10T12:46:17;2.92;;;1.10;;
41259;SDS011;26993;48.958;9.330;2022-07-10T12:49:13;3.55;;;1.10;;
41259;SDS011;26993;48.958;9.330;2022-07-10T12:52:02;5.78;;;1.25;;
41259;SDS011;26993;48.958;9.330;2022-07-10T12:59:27;7.07;;;1.10;;
41259;SDS011;26993;48.958;9.330;2022-07-10T13:02:59;3.60;;;1.30;;
41259;SDS011;26993;48.958;9.330;2022-07-10T13:06:35;3.40;;;0.90;;
41259;SDS011;26993;48.958;9.330;2022-07-10T13:09:58;3.00;;;1.10;;
41259;SDS011;26993;48.958;9.330;2022-07-10T13:12:51;2.95;;;1.10;;
41259;SDS011;26993;48.958;9.330;2022-07-10T13:16:12;2.75;;;0.95;;
41259;SDS011;26993;48.958;9.330;2022-07-10T13:19:13;4.13;;;1.10;;
41259;SDS011;26993;48.958;9.330;2022-07-10T13:22:12;4.35;;;1.10;;
41259;SDS011;26993;48.958;9.330;2022-07-10T13:44:22;3.72;;;1.15;;
41259;SDS011;26993;48.958;9.330;2022-07-10T13:47:12;4.55;;;1.08;;
41259;SDS011;26993;48.958;9.330;2022-07-10T13:50:44;3.05;;;0.98;;
41259;SDS011;26993;48.958;9.330;2022-07-10T13:53:46;2.85;;;1.00;;
41259;SDS011;26993;48.958;9.330;2022-07-10T13:57:06;2.60;;;0.95;;
41259;SDS011;26993;48.958;9.330;2022-07-10T14:00:25;2.00;;;0.82;;
41259;SDS011;26993;48.958;9.330;2022-07-10T14:03:14;3.13;;;1.00;;
41259;SDS011;26993;48.958;9.330;2022-07-10T14:06:08;2.97;;;1.25;;
41259;SDS011;26993;48.958;9.330;2022-07-10T14:09:01;2.83;;;1.20;;
41259;SDS011;26993;48.958;9.330;2022-07-10T14:11:47;1.60;;;0.80;;
41259;SDS011;26993;48.958;9.330;2022-07-10T14:14:34;1.98;;;0.80;;
41259;SDS011;26993;48.958;9.330;2022-07-10T14:17:23;4.32;;;1.20;;
41259;SDS011;26993;48.958;9.330;2022-07-10T14:20:10;2.42;;;0.88;;
41259;SDS011;26993;48.958;9.330;2022-07-10T14:23:32;3.00;;;1.05;;
41259;SDS011;26993;48.958;9.330;2022-07-10T14:26:36;1.65;;;0.70;;
41259;SDS011;26993;48.958;9.330;2022-07-10T14:29:48;1.15;;;0.80;;
41259;SDS011;26993;48.958;9.330;2022-07-10T14:35:57;1.73;;;0.70;;
41259;SDS011;26993;48.958;9.330;2022-07-10T14:38:46;2.85;;;1.10;;
41259;SDS011;26993;48.958;9.330;2022-07-10T14:41:33;4.18;;;1.00;;
41259;SDS011;26993;48.958;9.330;2022-07-10T14:44:19;3.72;;;1.00;;
41259;SDS011;26993;48.958;9.330;2022-07-10T14:47:06;3.95;;;0.88;;
41259;SDS011;26993;48.958;9.330;2022-07-10T14:49:54;3.65;;;0.90;;
41259;SDS011;26993;48.958;9.330;2022-07-10T14:52:41;2.65;;;0.82;;
41259;SDS011;26993;48.958;9.330;2022-07-10T14:55:27;2.22;;;0.90;;
41259;SDS011;26993;48.958;9.330;2022-07-10T14:58:15;2.38;;;0.80;;
41259;SDS011;26993;48.958;9.330;2022-07-10T15:01:02;2.70;;;0.80;;
41259;SDS011;26993;48.958;9.330;2022-07-10T15:03:49;4.88;;;0.95;;
41259;SDS011;26993;48.958;9.330;2022-07-10T15:06:37;2.15;;;0.80;;
41259;SDS011;26993;48.958;9.330;2022-07-10T15:09:24;1.75;;;0.85;;
41259;SDS011;26993;48.958;9.330;2022-07-10T15:12:10;2.25;;;0.90;;
41259;SDS011;26993;48.958;9.330;2022-07-10T15:14:57;4.13;;;1.00;;
41259;SDS011;26993;48.958;9.330;2022-07-10T15:17:44;1.25;;;0.70;;
41259;SDS011;26993;48.958;9.330;2022-07-10T15:20:31;2.40;;;1.00;;
41259;SDS011;26993;48.958;9.330;2022-07-10T15:23:19;2.13;;;1.00;;
41259;SDS011;26993;48.958;9.330;2022-07-10T15:26:06;2.20;;;1.02;;
41259;SDS011;26993;48.958;9.330;2022-07-10T15:28:53;2.17;;;0.82;;
41259;SDS011;26993;48.958;9.330;2022-07-10T15:31:40;4.80;;;0.95;;
41259;SDS011;26993;48.958;9.330;2022-07-10T15:34:27;3.30;;;0.77;;
41259;SDS011;26993;48.958;9.330;2022-07-10T15:37:13;2.78;;;0.93;;
41259;SDS011;26993;48.958;9.330;2022-07-10T15:40:02;2.95;;;1.05;;
41259;SDS011;26993;48.958;9.330;2022-07-10T15:42:49;3.33;;;0.93;;
41259;SDS011;26993;48.958;9.330;2022-07-10T15:45:36;1.98;;;0.80;;
41259;SDS011;26993;48.958;9.330;2022-07-10T15:48:23;1.70;;;1.02;;
41259;SDS011;26993;48.958;9.330;2022-07-10T15:51:09;3.75;;;0.98;;
41259;SDS011;26993;48.958;9.330;2022-07-10T15:53:57;2.30;;;1.02;;
41259;SDS011;26993;48.958;9.330;2022-07-10T15:56:45;1.23;;;0.90;;
41259;SDS011;26993;48.958;9.330;2022-07-10T15:59:31;1.95;;;1.10;;
41259;SDS011;26993;48.958;9.330;2022-07-10T16:02:19;2.67;;;1.08;;
41259;SDS011;26993;48.958;9.330;2022-07-10T16:05:06;1.65;;;0.85;;
41259;SDS011;26993;48.958;9.330;2022-07-10T16:07:53;2.88;;;1.20;;
41259;SDS011;26993;48.958;9.330;2022-07-10T16:10:40;1.83;;;0.95;;
41259;SDS011;26993;48.958;9.330;2022-07-10T16:13:28;5.90;;;1.10;;
41259;SDS011;26993;48.958;9.330;2022-07-10T16:16:16;1.65;;;0.98;;
41259;SDS011;26993;48.958;9.330;2022-07-10T16:19:03;2.20;;;0.95;;
41259;SDS011;26993;48.958;9.330;2022-07-10T16:21:49;3.10;;;0.98;;
41259;SDS011;26993;48.958;9.330;2022-07-10T16:24:36;3.70;;;1.10;;
41259;SDS011;26993;48.958;9.330;2022-07-10T16:27:43;1.58;;;1.00;;
41259;SDS011;26993;48.958;9.330;2022-07-10T16:30:31;2.28;;;1.00;;
41259;SDS011;26993;48.958;9.330;2022-07-10T16:33:18;1.95;;;1.02;;
41259;SDS011;26993;48.958;9.330;2022-07-10T16:36:05;2.63;;;1.10;;
41259;SDS011;26993;48.958;9.330;2022-07-10T16:38:52;3.95;;;1.23;;
41259;SDS011;26993;48.958;9.330;2022-07-10T16:41:41;5.47;;;1.30;;
41259;SDS011;26993;48.958;9.330;2022-07-10T16:44:28;3.88;;;1.33;;
41259;SDS011;26993;48.958;9.330;2022-07-10T16:47:17;2.80;;;0.98;;
41259;SDS011;26993;48.958;9.330;2022-07-10T16:50:07;3.08;;;1.40;;
41259;SDS011;26993;48.958;9.330;2022-07-10T16:52:54;1.92;;;1.00;;
41259;SDS011;26993;48.958;9.330;2022-07-10T16:55:42;2.78;;;1.05;;
41259;SDS011;26993;48.958;9.330;2022-07-10T16:58:30;2.67;;;1.13;;
41259;SDS011;26993;48.958;9.330;2022-07-10T17:01:18;1.83;;;0.90;;
41259;SDS011;26993;48.958;9.330;2022-07-10T17:04:09;3.15;;;1.13;;
41259;SDS011;26993;48.958;9.330;2022-07-10T17:06:56;3.33;;;1.02;;
41259;SDS011;26993;48.958;9.330;2022-07-10T17:09:43;4.88;;;1.25;;
41259;SDS011;26993;48.958;9.330;2022-07-10T17:12:30;4.35;;;1.15;;
41259;SDS011;26993;48.958;9.330;2022-07-10T17:15:16;2.55;;;1.15;;
41259;SDS011;26993;48.958;9.330;2022-07-10T17:18:04;3.22;;;1.55;;
41259;SDS011;26993;48.958;9.330;2022-07-10T17:20:52;2.53;;;1.40;;
41259;SDS011;26993;48.958;9.330;2022-07-10T17:23:39;2.53;;;1.42;;
41259;SDS011;26993;48.958;9.330;2022-07-10T17:26:26;2.00;;;1.17;;
41259;SDS011;26993;48.958;9.330;2022-07-10T17:29:14;3.65;;;1.38;;
41259;SDS011;26993;48.958;9.330;2022-07-10T17:32:01;5.43;;;1.30;;
41259;SDS011;26993;48.958;9.330;2022-07-10T17:34:48;1.92;;;1.30;;